createdAt,value
2022-10-11T00:01:37.835Z,101292.28
2022-10-11T00:06:31.317Z,101260.88
2022-10-11T00:11:25.227Z,101262.66
2022-10-11T00:16:18.741Z,101276.25
2022-10-11T00:21:14.452Z,101286.03
2022-10-11T00:26:10.195Z,101274.59
2022-10-11T00:31:07.336Z,101278.22
2022-10-11T00:36:01.579Z,101277.38
2022-10-11T00:40:56.084Z,101272.25
2022-10-11T00:45:57.831Z,101274.91
2022-10-11T00:50:51.926Z,101277.78
2022-10-11T00:55:52.561Z,101290.97
2022-10-11T01:00:46.356Z,101278.50
2022-10-11T01:05:41.105Z,101242.13
2022-10-11T01:10:34.898Z,101263.59
2022-10-11T01:16:08.633Z,101264.56
2022-10-11T01:21:19.636Z,101268.09
2022-10-11T01:26:54.839Z,101270.75
2022-10-11T01:32:04.375Z,101279.56
2022-10-11T01:37:12.871Z,101256.50
2022-10-11T01:42:10.616Z,101247.75
2022-10-11T01:47:04.010Z,101221.09
2022-10-11T01:52:00.432Z,101234.53
2022-10-11T01:57:32.090Z,101241.66
2022-10-11T02:02:27.417Z,101252.28
2022-10-11T02:07:25.943Z,101207.16
2022-10-11T02:12:28.917Z,101217.59
2022-10-11T02:17:28.521Z,101238.16
2022-10-11T02:22:29.204Z,101219.31
2022-10-11T02:27:27.578Z,101233.19
2022-10-11T02:32:23.288Z,101204.47
2022-10-11T02:37:23.898Z,101202.88
2022-10-11T02:42:27.705Z,101227.69
2022-10-11T02:47:22.263Z,101229.59
2022-10-11T02:52:15.833Z,101229.59
2022-10-11T02:57:09.515Z,101204.66
2022-10-11T03:02:03.380Z,101224.41
2022-10-11T03:06:56.534Z,101227.88
2022-10-11T03:11:50.254Z,101219.97
2022-10-11T03:16:43.990Z,101204.88
2022-10-11T03:21:38.059Z,101202.31
2022-10-11T03:26:31.596Z,101226.34
2022-10-11T03:31:25.140Z,101205.06
2022-10-11T03:36:20.087Z,101230.78
2022-10-11T03:41:12.954Z,101206.66
2022-10-11T03:46:09.042Z,101204.97
2022-10-11T03:51:03.544Z,101228.25
2022-10-11T03:55:57.421Z,101200.97
2022-10-11T04:00:50.957Z,101230.13
2022-10-11T04:05:45.274Z,101200.16
2022-10-11T04:10:38.836Z,101210.09
2022-10-11T04:15:32.873Z,101200.88
2022-10-11T04:20:25.953Z,101219.69
2022-10-11T04:25:19.806Z,101229.47
2022-10-11T04:30:14.926Z,101203.53
2022-10-11T04:35:08.852Z,101221.59
2022-10-11T04:40:02.685Z,101227.78
2022-10-11T04:44:56.237Z,101221.59
2022-10-11T04:49:49.257Z,101188.56
2022-10-11T04:54:43.032Z,101248.22
2022-10-11T04:59:36.632Z,101217.13
2022-10-11T05:04:30.706Z,101241.25
2022-10-11T05:09:24.197Z,101200.13
2022-10-11T05:14:17.997Z,101248.41
2022-10-11T05:19:12.028Z,101249.34
2022-10-11T05:24:06.888Z,101257.22
2022-10-11T05:28:59.876Z,101258.09
2022-10-11T05:33:53.736Z,101249.53
2022-10-11T05:38:48.217Z,101259.50
2022-10-11T05:43:42.914Z,101268.53
2022-10-11T05:48:36.165Z,101270.25
2022-10-11T05:53:30.644Z,101251.03
2022-10-11T05:58:24.104Z,101267.06
2022-10-11T06:03:17.037Z,101267.03
2022-10-11T06:08:11.917Z,101268.28
2022-10-11T06:13:06.118Z,101276.63
2022-10-11T06:18:03.776Z,101277.25
2022-10-11T06:22:57.210Z,101283.41
2022-10-11T06:27:50.956Z,101238.44
2022-10-11T06:32:44.345Z,101303.69
2022-10-11T06:37:38.389Z,101258.28
2022-10-11T06:42:31.958Z,101300.19
2022-10-11T06:47:25.884Z,101301.72
2022-10-11T06:52:19.390Z,101264.13
2022-10-11T06:57:12.558Z,101322.88
2022-10-11T07:02:06.868Z,101294.13
2022-10-11T07:07:04.505Z,101306.63
2022-10-11T07:11:59.804Z,101312.84
2022-10-11T07:16:53.728Z,101324.00
2022-10-11T07:21:47.032Z,101303.34
2022-10-11T07:26:40.357Z,101313.44
2022-10-11T07:31:34.021Z,101332.13
2022-10-11T07:36:27.535Z,101310.63
2022-10-11T07:41:21.404Z,101310.19
2022-10-11T07:46:15.163Z,101303.25
2022-10-11T07:51:13.850Z,101329.09
2022-10-11T07:56:09.389Z,101335.63
2022-10-11T08:01:03.657Z,101312.91
2022-10-11T08:06:05.381Z,101309.78
2022-10-11T08:11:00.254Z,101334.25
2022-10-11T08:15:54.134Z,101337.16
2022-10-11T08:20:47.704Z,101350.97
2022-10-11T08:25:44.682Z,101313.69
2022-10-11T08:30:38.460Z,101313.50
2022-10-11T08:35:32.424Z,101347.97
2022-10-11T08:40:26.015Z,101346.25
2022-10-11T08:45:31.871Z,101318.41
2022-10-11T08:50:25.146Z,101342.38
2022-10-11T08:55:38.186Z,101323.63
2022-10-11T09:00:34.293Z,101342.59
2022-10-11T09:05:33.864Z,101320.69
2022-10-11T09:10:46.567Z,101348.31
2022-10-11T09:15:51.933Z,101337.75
2022-10-11T09:21:14.366Z,101341.38
2022-10-11T09:26:24.085Z,101335.19
2022-10-11T09:31:18.649Z,101316.16
2022-10-11T09:36:40.923Z,101348.19
2022-10-11T09:42:05.593Z,101330.38
2022-10-11T09:47:03.636Z,101284.88
2022-10-11T09:51:59.701Z,101293.44
2022-10-11T09:56:53.977Z,101321.53
2022-10-11T10:01:47.574Z,101327.31
2022-10-11T10:06:41.436Z,101306.47
2022-10-11T10:11:38.425Z,101306.38
2022-10-11T10:16:41.603Z,101343.50
2022-10-11T10:21:38.112Z,101310.41
2022-10-11T10:26:36.884Z,101284.69
2022-10-11T10:32:09.223Z,101341.50
2022-10-11T10:36:59.081Z,101324.69
2022-10-11T10:41:52.351Z,101299.78
2022-10-11T10:46:47.927Z,101312.53
2022-10-11T10:52:06.645Z,101302.06
2022-10-11T10:57:04.627Z,101301.31
2022-10-11T11:02:28.204Z,101331.53
2022-10-11T11:07:49.345Z,101309.28
2022-10-11T11:13:03.933Z,101309.59
2022-10-11T11:18:42.761Z,101304.19
2022-10-11T11:23:43.640Z,101291.34
2022-10-11T11:28:54.002Z,101300.69
2022-10-11T11:34:06.008Z,101304.00
2022-10-11T11:39:02.569Z,101298.03
2022-10-11T11:44:18.549Z,101292.59
2022-10-11T11:49:18.932Z,101294.31
2022-10-11T11:54:49.492Z,101286.16
2022-10-11T11:59:43.063Z,101293.56
2022-10-11T12:04:39.926Z,101300.31
2022-10-11T12:09:35.482Z,101274.72
2022-10-11T12:14:40.347Z,101295.25
2022-10-11T12:19:34.452Z,101261.63
2022-10-11T12:24:57.557Z,101290.72
2022-10-11T12:29:52.119Z,101262.03
2022-10-11T12:34:46.167Z,101262.47
2022-10-11T12:39:55.797Z,101278.19
2022-10-11T12:45:13.754Z,101279.13
2022-10-11T12:50:28.792Z,101285.13
2022-10-11T12:56:03.324Z,101268.50
2022-10-11T13:00:56.714Z,101276.38
2022-10-11T13:05:53.727Z,101225.53
2022-10-11T13:10:49.564Z,101251.59
2022-10-11T13:15:43.884Z,101244.28
2022-10-11T13:20:41.714Z,101244.47
2022-10-11T13:25:42.516Z,101238.31
2022-10-11T13:30:37.798Z,101220.50
2022-10-11T13:35:36.863Z,101241.72
2022-10-11T13:40:31.864Z,101221.94
2022-10-11T13:45:28.561Z,101231.06
2022-10-11T13:50:32.734Z,101205.44
2022-10-11T13:55:36.602Z,101230.06
2022-10-11T14:00:37.352Z,101232.78
2022-10-11T14:05:30.645Z,101230.06
2022-10-11T14:10:24.918Z,101206.75
2022-10-11T14:15:24.000Z,101235.38
2022-10-11T14:20:35.672Z,101207.63
2022-10-11T14:25:29.909Z,101215.34
2022-10-11T14:30:26.184Z,101213.16
2022-10-11T14:35:26.296Z,101164.31
2022-10-11T14:40:22.926Z,101210.41
2022-10-11T14:45:16.436Z,101210.22
2022-10-11T14:50:33.739Z,101209.44
2022-10-11T14:55:27.720Z,101194.81
2022-10-11T15:00:23.779Z,101204.13
2022-10-11T15:05:18.009Z,101213.81
2022-10-11T15:10:19.539Z,101192.25
2022-10-11T15:15:16.791Z,101197.38
2022-10-11T15:20:19.165Z,101199.47
2022-10-11T15:25:16.495Z,101189.59
2022-10-11T15:30:28.377Z,101205.84
2022-10-11T15:35:23.553Z,101202.25
2022-10-11T15:40:25.176Z,101213.44
2022-10-11T15:45:21.636Z,101188.53
2022-10-11T15:50:34.425Z,101182.09
2022-10-11T15:55:28.483Z,101185.69
2022-10-11T16:00:22.558Z,101203.75
2022-10-11T16:05:16.476Z,101197.38
2022-10-11T16:10:11.636Z,101188.56
2022-10-11T16:15:05.917Z,101163.78
2022-10-11T16:20:00.295Z,101193.03
2022-10-11T16:24:54.075Z,101189.69
2022-10-11T16:29:47.974Z,101194.81
2022-10-11T16:34:42.229Z,101196.34
2022-10-11T16:39:35.381Z,101174.88
2022-10-11T16:44:29.716Z,101206.69
2022-10-11T16:49:26.838Z,101184.34
2022-10-11T16:54:20.969Z,101213.81
2022-10-11T16:59:14.913Z,101191.59
2022-10-11T17:04:09.173Z,101214.75
2022-10-11T17:09:03.573Z,101194.06
2022-10-11T17:13:56.821Z,101221.31
2022-10-11T17:18:50.713Z,101219.72
2022-10-11T17:23:44.385Z,101226.94
2022-10-11T17:28:37.676Z,101201.16
2022-10-11T17:33:32.050Z,101202.13
2022-10-11T17:38:28.213Z,101216.72
2022-10-11T17:43:22.035Z,101223.50
2022-10-11T17:48:16.121Z,101249.22
2022-10-11T17:53:10.202Z,101212.09
2022-10-11T17:58:04.291Z,101222.91
2022-10-11T18:02:58.073Z,101232.03
2022-10-11T18:07:54.488Z,101250.22
2022-10-11T18:12:47.841Z,101252.72
2022-10-11T18:17:41.880Z,101261.47
2022-10-11T18:22:35.222Z,101226.69
2022-10-11T18:27:30.233Z,101227.34
2022-10-11T18:32:23.893Z,101233.38
2022-10-11T18:37:18.055Z,101253.53
2022-10-11T18:42:11.995Z,101252.50
2022-10-11T18:47:06.017Z,101239.69
2022-10-11T18:51:59.764Z,101235.97
2022-10-11T18:56:54.136Z,101258.19
2022-10-11T19:01:48.716Z,101268.13
2022-10-11T19:06:45.174Z,101269.56
2022-10-11T19:11:42.957Z,101239.06
2022-10-11T19:16:40.329Z,101264.13
2022-10-11T19:21:34.625Z,101247.16
2022-10-11T19:26:32.020Z,101268.16
2022-10-11T19:31:26.527Z,101275.47
2022-10-11T19:36:19.994Z,101275.47
2022-10-11T19:41:15.894Z,101258.63
2022-10-11T19:46:11.389Z,101271.34
2022-10-11T19:51:08.537Z,101248.41
2022-10-11T19:56:06.613Z,101278.78
2022-10-11T20:01:14.072Z,101269.63
2022-10-11T20:06:08.672Z,101257.56
2022-10-11T20:11:10.776Z,101271.34
2022-10-11T20:16:27.208Z,101298.91
2022-10-11T20:21:22.504Z,101279.22
2022-10-11T20:26:21.594Z,101317.44
2022-10-11T20:31:16.728Z,101318.38
2022-10-11T20:36:13.941Z,101297.03
2022-10-11T20:41:09.060Z,101294.19
2022-10-11T20:46:07.954Z,101344.38
2022-10-11T20:51:01.815Z,101332.78
2022-10-11T20:55:56.378Z,101332.13
2022-10-11T21:00:50.252Z,101339.44
2022-10-11T21:05:44.168Z,101325.38
2022-10-11T21:10:37.764Z,101317.97
2022-10-11T21:15:32.105Z,101310.28
2022-10-11T21:20:26.005Z,101303.53
2022-10-11T21:25:20.598Z,101328.97
2022-10-11T21:30:12.988Z,101307.44
2022-10-11T21:35:06.721Z,101324.53
2022-10-11T21:40:00.057Z,101302.28
2022-10-11T21:44:52.979Z,101326.44
2022-10-11T21:49:50.869Z,101335.25
2022-10-11T21:54:45.687Z,101332.81
2022-10-11T21:59:39.297Z,101340.69
2022-10-11T22:04:33.435Z,101329.28
2022-10-11T22:09:29.139Z,101340.03
2022-10-11T22:14:22.518Z,101327.66
2022-10-11T22:19:15.459Z,101298.19
2022-10-11T22:24:10.134Z,101321.28
2022-10-11T22:29:03.370Z,101327.56
2022-10-11T22:33:59.349Z,101332.88
2022-10-11T22:38:52.634Z,101302.69
2022-10-11T22:43:46.133Z,101323.22
2022-10-11T22:48:39.961Z,101319.84
2022-10-11T22:53:33.178Z,101303.63
2022-10-11T22:58:26.461Z,101298.41
2022-10-11T23:03:20.811Z,101306.41
2022-10-11T23:08:14.933Z,101327.00
2022-10-11T23:13:07.944Z,101322.75
2022-10-11T23:18:00.829Z,101322.16
2022-10-11T23:22:55.035Z,101338.59
2022-10-11T23:27:48.164Z,101335.94
2022-10-11T23:32:41.526Z,101343.25
2022-10-11T23:37:36.117Z,101342.31
2022-10-11T23:42:30.113Z,101336.22
2022-10-11T23:47:24.083Z,101322.63
2022-10-11T23:52:17.512Z,101313.47
2022-10-11T23:57:10.741Z,101369.78
